Time;durP1;ratioP1;P1;durP2;ratioP2;P2;SDS_P1;SDS_P2;PMS_P1;PMS_P2;Temp;Humidity;BMP_temperature;BMP_pressure;BME280_temperature;BME280_humidity;BME280_pressure;Samples;Min_cycle;Max_cycle;Signal;HPM_P1;HPM_P2
2022/03/14 00:00:12;;;;;;;4.43;2.67;;;;;;;18.34;28.25;100036.91;5119497;28;20027;-76
2022/03/14 00:02:39;;;;;;;4.97;2.50;;;;;;;18.42;27.99;100039.66;5107085;28;20040;-74
2022/03/14 00:05:05;;;;;;;3.50;2.38;;;;;;;18.51;27.99;100041.38;5107137;28;20087;-73
2022/03/14 00:07:36;;;;;;;3.65;2.47;;;;;;;18.58;27.99;100030.84;5120163;28;20032;-74
2022/03/14 00:10:05;;;;;;;4.07;3.13;;;;;;;18.62;27.88;100034.88;5127413;28;20072;-77
2022/03/14 00:12:31;;;;;;;3.88;2.45;;;;;;;18.69;27.69;100038.59;5127191;28;20068;-72
2022/03/14 00:15:01;;;;;;;5.13;2.25;;;;;;;18.73;27.83;100039.13;5127091;28;20117;-73
2022/03/14 00:17:28;;;;;;;3.25;2.40;;;;;;;18.78;27.95;100044.81;5126584;28;20035;-75
2022/03/14 00:19:55;;;;;;;3.58;2.05;;;;;;;18.80;27.65;100045.50;5127237;28;20020;-74
2022/03/14 00:22:22;;;;;;;2.83;2.10;;;;;;;18.81;27.99;100041.00;5125795;28;20043;-74
2022/03/14 00:24:48;;;;;;;2.65;2.17;;;;;;;18.86;27.66;100044.88;5126973;28;20040;-73
2022/03/14 00:27:14;;;;;;;3.45;2.50;;;;;;;18.90;27.52;100040.00;5127012;28;20035;-76
2022/03/14 00:29:40;;;;;;;3.03;2.17;;;;;;;18.92;27.51;100040.69;5127198;28;20023;-74
2022/03/14 00:32:06;;;;;;;4.35;2.47;;;;;;;18.96;27.43;100036.72;5126780;28;20043;-76
2022/03/14 00:34:32;;;;;;;2.92;1.98;;;;;;;19.00;27.72;100037.22;5127218;28;20275;-74
2022/03/14 00:36:57;;;;;;;3.05;2.67;;;;;;;18.98;27.63;100041.91;5125407;28;20039;-73
2022/03/14 00:39:23;;;;;;;4.32;2.47;;;;;;;18.98;27.61;100039.22;5127121;28;20035;-75
2022/03/14 00:41:49;;;;;;;3.53;2.53;;;;;;;19.00;27.65;100047.94;5126564;28;20054;-73
2022/03/14 00:44:18;;;;;;;2.53;1.85;;;;;;;19.00;27.75;100034.53;5126770;28;20047;-73
2022/03/14 00:46:44;;;;;;;3.67;2.10;;;;;;;19.02;27.77;100037.91;5126954;28;20028;-73
2022/03/14 00:49:11;;;;;;;3.55;2.15;;;;;;;19.02;27.75;100035.22;5126662;28;20200;-74
2022/03/14 00:51:37;;;;;;;4.10;2.40;;;;;;;19.05;27.77;100046.47;5131029;28;20024;-76
2022/03/14 00:54:04;;;;;;;3.90;2.00;;;;;;;19.04;27.86;100041.28;5129335;28;20047;-73
2022/03/14 00:56:30;;;;;;;4.20;2.65;;;;;;;19.05;27.51;100034.88;5130553;28;20023;-75
2022/03/14 00:58:58;;;;;;;2.92;2.20;;;;;;;19.07;27.56;100024.81;5130736;28;20244;-75
2022/03/14 01:01:24;;;;;;;4.13;2.20;;;;;;;19.08;27.56;100031.03;5130647;28;20419;-75
2022/03/14 01:03:50;;;;;;;3.17;2.08;;;;;;;19.05;27.70;100030.38;5130829;28;20232;-76
2022/03/14 01:06:15;;;;;;;4.05;2.30;;;;;;;19.06;27.51;100020.47;5129713;28;20152;-75
2022/03/14 01:08:41;;;;;;;3.20;2.03;;;;;;;19.06;27.65;100025.81;5129475;28;20043;-73
2022/03/14 01:11:06;;;;;;;4.07;2.55;;;;;;;19.04;27.58;100023.31;5130030;28;20148;-74
2022/03/14 01:13:32;;;;;;;2.95;2.05;;;;;;;19.06;27.57;100015.09;5130071;28;20024;-76
2022/03/14 01:15:59;;;;;;;5.70;1.90;;;;;;;19.07;27.52;100019.47;5130295;28;20043;-74
2022/03/14 01:18:25;;;;;;;3.83;2.22;;;;;;;19.07;27.50;100022.16;5129880;28;20208;-73
2022/03/14 01:20:51;;;;;;;3.38;2.17;;;;;;;19.08;27.70;100028.38;5130437;28;20043;-75
2022/03/14 01:23:17;;;;;;;4.20;2.60;;;;;;;19.08;27.77;100028.38;5130168;28;20023;-75
2022/03/14 01:25:44;;;;;;;3.88;2.35;;;;;;;19.11;27.58;100028.03;5130284;28;20035;-78
2022/03/14 01:28:10;;;;;;;3.33;2.35;;;;;;;19.14;27.60;100033.91;5128657;28;20063;-74
2022/03/14 01:30:35;;;;;;;2.78;2.00;;;;;;;19.17;27.61;100022.00;5130357;28;20030;-76
2022/03/14 01:33:01;;;;;;;2.97;2.28;;;;;;;19.15;27.53;100022.19;5129977;28;20270;-72
2022/03/14 01:35:27;;;;;;;2.60;2.00;;;;;;;19.15;27.67;100026.69;5129790;28;20073;-73
2022/03/14 01:37:54;;;;;;;3.78;2.28;;;;;;;19.19;27.27;100028.88;5129450;28;20035;-77
2022/03/14 01:40:19;;;;;;;3.08;2.03;;;;;;;19.22;27.77;100033.09;5109622;28;20019;-76
2022/03/14 01:42:45;;;;;;;4.35;2.20;;;;;;;19.20;27.73;100019.81;5123979;28;20062;-74
2022/03/14 01:45:13;;;;;;;4.47;2.22;;;;;;;19.22;27.77;100030.41;5128480;28;20032;-74
2022/03/14 01:47:41;;;;;;;3.53;2.35;;;;;;;19.25;27.65;100031.91;5129818;27;20034;-75
2022/03/14 01:50:08;;;;;;;4.88;2.10;;;;;;;19.26;27.92;100036.25;5129112;28;20056;-74
2022/03/14 01:52:34;;;;;;;4.05;2.25;;;;;;;19.29;28.02;100025.22;5129543;28;20047;-74
2022/03/14 01:55:00;;;;;;;4.43;2.30;;;;;;;19.32;27.76;100025.72;5129929;28;20136;-74
2022/03/14 01:57:27;;;;;;;4.35;2.00;;;;;;;19.33;27.89;100031.94;5129370;28;20038;-74
2022/03/14 01:59:54;;;;;;;4.13;2.42;;;;;;;19.31;27.63;100026.72;5126738;28;20090;-73
2022/03/14 02:02:20;;;;;;;4.22;2.53;;;;;;;19.29;27.69;100019.84;5129158;28;20028;-71
2022/03/14 02:04:46;;;;;;;3.92;2.58;;;;;;;19.31;27.42;100031.25;5129721;28;20034;-74
2022/03/14 02:07:12;;;;;;;3.15;2.20;;;;;;;19.32;27.70;100030.25;5129318;28;20032;-72
2022/03/14 02:09:38;;;;;;;3.38;2.15;;;;;;;19.29;27.78;100036.75;5128375;28;20036;-71
2022/03/14 02:12:03;;;;;;;3.90;2.70;;;;;;;19.27;27.56;100040.63;5129236;28;20035;-74
2022/03/14 02:14:30;;;;;;;3.50;2.30;;;;;;;19.28;27.58;100045.00;5127170;28;20031;-73
2022/03/14 02:16:55;;;;;;;4.20;2.10;;;;;;;19.29;27.59;100041.31;5126957;28;20112;-71
2022/03/14 02:19:21;;;;;;;3.28;2.40;;;;;;;19.31;27.75;100050.03;5129386;28;20252;-73
2022/03/14 02:21:47;;;;;;;5.40;3.08;;;;;;;19.30;27.30;100051.88;5125618;28;20145;-74
2022/03/14 02:24:12;;;;;;;4.18;2.17;;;;;;;19.34;27.48;100057.72;5129216;27;20292;-72
2022/03/14 02:26:41;;;;;;;3.70;2.13;;;;;;;19.34;27.66;100044.31;5129230;28;20054;-75
2022/03/14 02:29:08;;;;;;;2.95;2.40;;;;;;;19.35;27.43;100049.53;5129100;28;20039;-73
2022/03/14 02:31:37;;;;;;;3.22;2.40;;;;;;;19.36;27.78;100050.34;5129060;28;20032;-74
2022/03/14 02:34:07;;;;;;;3.65;2.28;;;;;;;19.37;27.72;100054.72;5112854;28;20050;-72
2022/03/14 02:36:38;;;;;;;3.80;2.63;;;;;;;19.35;27.53;100048.69;5108577;28;20189;-74
2022/03/14 02:39:03;;;;;;;;;;;;;;;19.28;28.00;100061.91;5109044;28;20028;-74
2022/03/14 02:41:29;;;;;;;4.68;2.65;;;;;;;19.30;27.77;100061.78;5108332;28;19956;-71
2022/03/14 02:43:56;;;;;;;3.83;2.40;;;;;;;19.34;27.76;100057.72;5108378;28;20032;-74
2022/03/14 02:46:21;;;;;;;4.40;2.38;;;;;;;19.34;27.56;100063.94;5108363;28;20133;-71
2022/03/14 02:48:47;;;;;;;4.13;2.75;;;;;;;19.38;27.59;100067.13;5121850;28;20024;-72
2022/03/14 02:51:12;;;;;;;4.50;2.55;;;;;;;19.36;27.53;100053.91;5128721;28;20087;-74
2022/03/14 02:53:38;;;;;;;4.55;2.97;;;;;;;19.35;27.73;100062.94;5127694;27;20031;-72
2022/03/14 02:56:04;;;;;;;3.80;2.72;;;;;;;19.38;27.61;100063.63;5128369;28;20033;-74
2022/03/14 02:58:32;;;;;;;3.75;2.40;;;;;;;19.37;27.68;100065.47;5128636;28;20043;-71
2022/03/14 03:00:58;;;;;;;4.95;2.30;;;;;;;19.36;27.57;100061.09;5113755;28;20035;-72
2022/03/14 03:03:23;;;;;;;2.53;1.90;;;;;;;19.36;27.52;100064.63;5109230;28;20034;-72
2022/03/14 03:05:49;;;;;;;3.78;2.47;;;;;;;19.36;27.53;100064.63;5127613;28;20043;-72
2022/03/14 03:08:14;;;;;;;5.15;2.45;;;;;;;19.38;27.65;100072.50;5128406;28;20253;-74
2022/03/14 03:10:41;;;;;;;3.00;2.47;;;;;;;19.41;27.60;100064.13;5128008;28;20019;-72
2022/03/14 03:13:09;;;;;;;3.30;2.47;;;;;;;19.42;27.39;100070.31;5127899;28;20027;-73
2022/03/14 03:15:36;;;;;;;3.45;2.45;;;;;;;19.43;27.52;100059.44;5128244;28;20054;-73
2022/03/14 03:18:02;;;;;;;3.33;2.42;;;;;;;19.44;27.64;100063.81;5128260;27;20099;-73
2022/03/14 03:20:28;;;;;;;3.63;2.42;;;;;;;19.45;27.72;100054.75;5126714;27;20129;-75
2022/03/14 03:22:54;;;;;;;5.10;2.97;;;;;;;19.45;27.51;100062.81;5128081;28;20098;-73
2022/03/14 03:25:19;;;;;;;4.22;2.55;;;;;;;19.43;27.37;100055.91;5128003;28;20241;-72
2022/03/14 03:27:45;;;;;;;4.20;2.83;;;;;;;19.43;27.41;100064.81;5127478;28;20066;-73
2022/03/14 03:30:11;;;;;;;3.88;2.75;;;;;;;19.45;27.77;100073.53;5127878;28;20152;-71
2022/03/14 03:32:36;;;;;;;4.13;2.80;;;;;;;19.43;27.79;100064.81;5127865;28;20231;-74
2022/03/14 03:35:02;;;;;;;4.32;2.83;;;;;;;19.43;27.72;100072.00;5125955;28;20031;-72
2022/03/14 03:37:28;;;;;;;4.38;3.05;;;;;;;19.43;27.40;100061.25;5126565;28;20066;-73
2022/03/14 03:39:54;;;;;;;5.55;3.08;;;;;;;19.41;27.48;100061.44;5126563;28;20027;-75
2022/03/14 03:42:19;;;;;;;4.80;3.00;;;;;;;19.44;27.43;100065.63;5126585;28;20044;-71
2022/03/14 03:44:45;;;;;;;3.03;2.38;;;;;;;19.48;27.56;100077.72;5126788;28;20032;-75
2022/03/14 03:47:10;;;;;;;2.92;2.63;;;;;;;19.46;27.56;100066.31;5126211;27;20028;-72
2022/03/14 03:49:38;;;;;;;4.53;3.17;;;;;;;19.46;27.56;100072.53;5122194;28;20236;-70
2022/03/14 03:52:04;;;;;;;3.38;2.63;;;;;;;19.47;27.50;100076.91;5110321;28;20086;-71
2022/03/14 03:54:29;;;;;;;5.13;3.00;;;;;;;19.46;27.62;100077.91;5125942;28;20426;-71
2022/03/14 03:56:55;;;;;;;4.60;3.40;;;;;;;19.45;27.49;100078.03;5126325;28;20044;-71
2022/03/14 03:59:21;;;;;;;4.57;3.15;;;;;;;19.48;27.54;100089.28;5125784;28;20058;-72
2022/03/14 04:01:47;;;;;;;4.45;3.40;;;;;;;19.48;27.44;100091.97;5107286;28;20027;-72
2022/03/14 04:04:13;;;;;;;3.90;3.10;;;;;;;19.48;27.42;100094.66;5107373;28;20036;-71
2022/03/14 04:06:40;;;;;;;4.25;3.35;;;;;;;19.47;27.61;100084.94;5114144;28;20145;-72
2022/03/14 04:09:06;;;;;;;4.45;3.38;;;;;;;19.48;27.37;100088.47;5125943;28;20046;-72
2022/03/14 04:11:31;;;;;;;5.30;3.33;;;;;;;19.48;27.61;100083.91;5126415;28;20056;-71
2022/03/14 04:13:58;;;;;;;4.88;3.60;;;;;;;19.50;27.60;100089.97;5126263;28;20147;-71
2022/03/14 04:16:26;;;;;;;4.90;3.80;;;;;;;19.50;27.29;100089.97;5126148;28;20237;-73
2022/03/14 04:18:52;;;;;;;4.60;3.67;;;;;;;19.48;27.42;100080.41;5126334;28;20028;-72
2022/03/14 04:21:17;;;;;;;5.95;3.75;;;;;;;19.50;27.24;100081.91;5122386;28;20039;-71
2022/03/14 04:23:43;;;;;;;5.22;3.60;;;;;;;19.48;27.55;100078.53;5112013;28;20225;-75
2022/03/14 04:26:09;;;;;;;6.28;4.40;;;;;;;19.51;27.56;100094.31;5113610;28;21147;-71
2022/03/14 04:28:36;;;;;;;6.63;4.32;;;;;;;19.51;27.48;100091.63;5132113;27;20099;-71
2022/03/14 04:31:06;;;;;;;5.97;4.13;;;;;;;19.54;27.60;100093.16;5132750;27;20121;-71
2022/03/14 04:33:32;;;;;;;5.88;4.28;;;;;;;19.51;27.51;100094.31;5132903;27;20043;-74
2022/03/14 04:35:58;;;;;;;6.28;4.95;;;;;;;19.50;27.44;100089.97;5132282;27;20027;-72
2022/03/14 04:38:27;;;;;;;8.20;4.80;;;;;;;19.54;27.36;100092.31;5116618;28;20024;-73
2022/03/14 04:40:54;;;;;;;7.57;4.95;;;;;;;19.50;27.63;100084.59;5132291;27;20035;-73
2022/03/14 04:43:24;;;;;;;10.05;6.40;;;;;;;19.52;27.53;100096.00;5118306;27;20044;-71
2022/03/14 04:45:50;;;;;;;4.23;3.83;;;;;;;19.50;27.47;100098.00;5113674;28;20198;-73
2022/03/14 04:48:17;;;;;;;6.38;5.22;;;;;;;19.52;27.28;100090.63;5132719;27;20310;-73
2022/03/14 04:50:43;;;;;;;7.35;4.50;;;;;;;19.54;27.33;100093.16;5132837;27;20023;-69
2022/03/14 04:53:10;;;;;;;6.82;5.15;;;;;;;19.54;27.60;100098.53;5123732;27;20034;-72
2022/03/14 04:55:36;;;;;;;7.00;5.20;;;;;;;19.56;27.56;100090.31;5132699;27;20092;-73
2022/03/14 04:58:06;;;;;;;8.70;4.63;;;;;;;19.57;27.54;100102.72;5132613;28;20035;-73
2022/03/14 05:00:33;;;;;;;8.15;5.25;;;;;;;19.57;27.39;100102.72;5129247;27;20233;-72
2022/03/14 05:03:07;;;;;;;6.30;5.47;;;;;;;19.53;27.63;100086.13;5132452;27;20147;-72
2022/03/14 05:05:33;;;;;;;7.38;5.72;;;;;;;19.56;27.50;100093.00;5132671;27;20072;-73
2022/03/14 05:07:59;;;;;;;8.45;5.82;;;;;;;19.57;27.52;100097.38;5130817;27;20031;-75
2022/03/14 05:10:24;;;;;;;6.97;5.47;;;;;;;19.57;27.66;100108.09;5133403;28;20189;-74
2022/03/14 05:12:50;;;;;;;7.57;5.78;;;;;;;19.57;27.25;100102.72;5133403;27;20046;-76
2022/03/14 05:15:16;;;;;;;6.53;4.93;;;;;;;19.58;27.78;100104.41;5133509;27;20239;-74
2022/03/14 05:17:42;;;;;;;8.68;5.90;;;;;;;19.59;27.61;100103.41;5133746;27;20055;-72
2022/03/14 05:20:09;;;;;;;7.28;5.40;;;;;;;19.60;27.65;100108.59;5133271;27;20035;-78
2022/03/14 05:22:42;;;;;;;7.90;5.22;;;;;;;19.61;27.80;100112.13;5131333;27;20160;-76
2022/03/14 05:25:08;;;;;;;7.63;5.80;;;;;;;19.58;27.75;100115.16;5133121;27;20067;-74
2022/03/14 05:27:33;;;;;;;9.00;6.65;;;;;;;19.59;27.73;100114.97;5133127;27;20047;-72
2022/03/14 05:29:59;;;;;;;8.57;5.43;;;;;;;19.60;27.77;100119.34;5133329;27;20047;-72
2022/03/14 05:32:25;;;;;;;10.57;5.57;;;;;;;19.60;27.68;100119.34;5133411;27;20240;-74
2022/03/14 05:34:50;;;;;;;7.97;5.75;;;;;;;19.62;27.54;100120.00;5129416;28;20088;-73
2022/03/14 05:37:17;;;;;;;8.35;5.57;;;;;;;19.62;27.57;100116.50;5129827;28;20051;-76
2022/03/14 05:39:42;;;;;;;8.13;5.35;;;;;;;19.63;27.56;100123.56;5117382;28;20036;-72
2022/03/14 05:42:08;;;;;;;9.20;5.40;;;;;;;19.63;27.59;100126.25;5125180;28;20264;-73
2022/03/14 05:44:34;;;;;;;6.57;5.10;;;;;;;19.63;27.50;100123.56;5129734;28;20038;-72
2022/03/14 05:46:59;;;;;;;6.85;4.90;;;;;;;19.62;27.72;100111.97;5129629;27;20035;-74
2022/03/14 05:49:24;;;;;;;5.53;4.50;;;;;;;19.63;27.57;100119.00;5129603;28;20153;-74
2022/03/14 05:51:50;;;;;;;6.43;4.57;;;;;;;19.63;27.39;100126.25;5129703;28;20050;-71
2022/03/14 05:54:15;;;;;;;6.57;4.65;;;;;;;19.63;27.58;100120.88;5129491;27;20043;-71
2022/03/14 05:56:42;;;;;;;6.82;4.80;;;;;;;19.64;27.71;100122.53;5129321;28;20049;-74
2022/03/14 05:59:10;;;;;;;6.40;4.57;;;;;;;19.64;27.44;100122.53;5129663;28;20072;-73
2022/03/14 06:01:38;;;;;;;8.10;4.60;;;;;;;19.64;27.46;100117.16;5112004;28;20056;-75
2022/03/14 06:04:03;;;;;;;6.13;4.47;;;;;;;19.65;28.05;100118.81;5124674;28;20027;-72
2022/03/14 06:06:29;;;;;;;5.20;3.63;;;;;;;19.66;28.30;100123.19;5128172;27;20160;-72
2022/03/14 06:08:54;;;;;;;7.68;3.83;;;;;;;19.64;28.17;100119.84;5128719;28;20070;-72
2022/03/14 06:11:20;;;;;;;7.05;3.97;;;;;;;19.64;28.28;100122.53;5128351;28;20015;-72
2022/03/14 06:13:46;;;;;;;6.05;3.88;;;;;;;19.65;28.46;100118.81;5128059;28;20089;-68
2022/03/14 06:16:13;;;;;;;7.00;3.75;;;;;;;19.67;28.53;100131.09;5128119;28;20039;-70
2022/03/14 06:18:38;;;;;;;7.65;4.60;;;;;;;19.67;28.28;100130.25;5129134;28;20034;-71
2022/03/14 06:21:04;;;;;;;7.82;4.38;;;;;;;19.73;28.11;100132.28;5128905;28;20031;-73
2022/03/14 06:23:30;;;;;;;7.60;4.07;;;;;;;19.74;27.89;100131.28;5128848;28;20270;-71
2022/03/14 06:25:55;;;;;;;7.03;3.75;;;;;;;19.77;27.87;100130.09;5128888;28;20055;-72
2022/03/14 06:28:22;;;;;;;5.57;4.00;;;;;;;19.78;27.90;100127.22;5128905;28;20058;-69
2022/03/14 06:30:47;;;;;;;6.40;3.35;;;;;;;19.83;27.77;100130.25;5128633;28;20236;-72
2022/03/14 06:33:13;;;;;;;7.25;4.70;;;;;;;19.82;27.90;100125.91;5128270;28;20036;-72
2022/03/14 06:35:40;;;;;;;8.90;4.05;;;;;;;19.86;27.84;100136.31;5127398;27;20114;-72
2022/03/14 06:38:06;;;;;;;10.13;3.80;;;;;;;19.85;27.72;100132.81;5128658;28;20042;-71
2022/03/14 06:40:32;;;;;;;7.63;3.88;;;;;;;19.85;27.83;100132.81;5128449;28;20031;-72
2022/03/14 06:42:59;;;;;;;4.57;3.20;;;;;;;19.87;27.81;100143.41;5129703;27;20058;-71
2022/03/14 06:45:26;;;;;;;4.88;3.22;;;;;;;19.83;27.63;100132.94;5127328;28;20035;-72
2022/03/14 06:47:52;;;;;;;5.13;2.65;;;;;;;19.89;27.50;100141.38;5127738;28;20031;-69
2022/03/14 06:50:18;;;;;;;8.98;3.53;;;;;;;19.90;27.69;100148.44;5120266;27;20039;-70
2022/03/14 06:52:44;;;;;;;8.80;2.97;;;;;;;19.91;27.57;100155.50;5128565;28;20015;-71
2022/03/14 06:55:10;;;;;;;5.55;2.50;;;;;;;19.94;27.43;100149.75;5127075;28;20028;-71
2022/03/14 06:57:39;;;;;;;4.60;2.70;;;;;;;19.96;27.48;100150.44;5126228;28;20043;-72
2022/03/14 07:00:07;;;;;;;4.25;2.55;;;;;;;19.96;27.39;100153.13;5128050;27;20055;-69
2022/03/14 07:02:34;;;;;;;6.63;2.42;;;;;;;19.96;27.01;100158.50;5125374;28;20088;-69
2022/03/14 07:05:00;;;;;;;4.65;2.00;;;;;;;19.98;27.16;100159.19;5126423;27;20140;-70
2022/03/14 07:07:25;;;;;;;4.32;1.98;;;;;;;20.00;26.92;100159.03;5125785;28;20036;-71
2022/03/14 07:09:51;;;;;;;3.92;1.88;;;;;;;20.02;26.87;100160.53;5125524;27;20035;-73
2022/03/14 07:12:16;;;;;;;5.68;2.17;;;;;;;20.03;26.76;100155.97;5127601;27;20042;-70
2022/03/14 07:14:42;;;;;;;5.50;2.25;;;;;;;20.01;26.73;100156.16;5126258;27;20146;-69
2022/03/14 07:17:07;;;;;;;4.35;1.63;;;;;;;20.04;26.74;100153.16;5126889;28;20173;-72
2022/03/14 07:19:33;;;;;;;3.88;2.28;;;;;;;20.06;26.78;100156.50;5126881;27;20076;-71
2022/03/14 07:21:58;;;;;;;3.92;1.80;;;;;;;20.05;26.68;100152.13;5129225;27;20040;-71
2022/03/14 07:24:23;;;;;;;5.35;2.50;;;;;;;20.09;26.59;100150.78;5125675;27;20039;-71
2022/03/14 07:26:49;;;;;;;3.97;1.80;;;;;;;20.13;26.88;100151.31;5123601;28;20024;-72
2022/03/14 07:29:15;;;;;;;6.43;2.83;;;;;;;20.17;26.92;100149.09;5122708;28;20032;-73
2022/03/14 07:31:41;;;;;;;5.63;2.10;;;;;;;20.19;26.66;100157.84;5126423;27;20043;-70
2022/03/14 07:34:08;;;;;;;6.95;2.05;;;;;;;20.21;26.47;100156.66;5126735;28;20026;-71
2022/03/14 07:36:34;;;;;;;4.53;1.75;;;;;;;20.23;26.54;100146.59;5126694;28;20035;-73
2022/03/14 07:39:01;;;;;;;4.30;1.90;;;;;;;20.25;26.22;100149.09;5118512;28;20028;-71
2022/03/14 07:41:26;;;;;;;2.92;1.60;;;;;;;20.24;26.09;100142.03;5107131;28;20248;-70
2022/03/14 07:43:52;;;;;;;4.47;1.90;;;;;;;20.26;26.15;100150.78;5107190;28;20024;-70
2022/03/14 07:46:18;;;;;;;2.88;1.50;;;;;;;20.27;26.06;100147.06;5109330;28;20047;-70
2022/03/14 07:48:43;;;;;;;5.20;2.13;;;;;;;20.27;25.94;100153.31;5127576;28;20028;-72
2022/03/14 07:51:09;;;;;;;3.13;1.80;;;;;;;20.28;26.15;100149.63;5127448;28;20024;-71
2022/03/14 07:53:35;;;;;;;4.38;1.80;;;;;;;20.29;25.95;100158.50;5127848;28;20116;-71
2022/03/14 07:56:00;;;;;;;2.97;1.67;;;;;;;20.23;25.81;100148.41;5127555;28;20027;-71
2022/03/14 07:58:26;;;;;;;3.47;1.42;;;;;;;20.29;25.69;100158.50;5126949;28;20038;-72
2022/03/14 08:00:52;;;;;;;4.50;1.83;;;;;;;20.33;25.61;100157.16;5127252;28;20027;-70
2022/03/14 08:03:18;;;;;;;2.83;1.80;;;;;;;20.34;25.45;100156.16;5127331;28;20020;-73
2022/03/14 08:05:45;;;;;;;7.60;1.83;;;;;;;20.38;25.51;100148.59;5127366;28;20243;-73
2022/03/14 08:08:11;;;;;;;4.53;1.75;;;;;;;20.39;25.38;100156.47;5127146;28;20024;-72
2022/03/14 08:10:41;;;;;;;3.45;1.80;;;;;;;20.42;25.26;100152.63;5127351;28;20088;-71
2022/03/14 08:13:07;;;;;;;3.33;1.60;;;;;;;20.42;25.42;100148.06;5127102;28;20234;-71
2022/03/14 08:15:36;;;;;;;5.20;1.83;;;;;;;20.46;25.28;100155.78;5127304;28;20031;-73
2022/03/14 08:18:10;;;;;;;2.80;1.48;;;;;;;20.46;25.36;100153.09;5127242;28;20031;-74
2022/03/14 08:20:37;;;;;;;5.40;2.38;;;;;;;20.46;25.07;100153.94;5127118;28;20046;-70
2022/03/14 08:23:03;;;;;;;4.57;1.77;;;;;;;20.46;25.18;100150.41;5127178;28;20063;-73
2022/03/14 08:25:30;;;;;;;2.88;1.48;;;;;;;20.49;25.14;100153.59;5126973;28;20078;-74
2022/03/14 08:27:56;;;;;;;2.70;1.75;;;;;;;20.48;25.00;100151.91;5120533;28;20020;-74
2022/03/14 08:30:23;;;;;;;4.18;1.85;;;;;;;20.50;24.91;100149.06;5111316;28;20335;-72
2022/03/14 08:32:49;;;;;;;3.20;1.80;;;;;;;20.51;25.11;100148.06;5126464;28;20282;-73
2022/03/14 08:35:17;;;;;;;2.58;1.60;;;;;;;20.53;24.88;100154.09;5126039;28;20135;-73
2022/03/14 08:37:44;;;;;;;5.03;1.60;;;;;;;20.52;24.94;100136.28;5125944;28;20031;-71
2022/03/14 08:40:11;;;;;;;5.18;2.35;;;;;;;20.54;25.35;100136.94;5136377;28;20054;-73
2022/03/14 08:42:38;;;;;;;1.90;1.40;;;;;;;20.55;24.95;100138.63;5136654;27;20031;-73
2022/03/14 08:45:05;;;;;;;3.20;1.83;;;;;;;20.53;25.05;100143.34;5126974;28;20031;-70
2022/03/14 08:47:32;;;;;;;4.53;1.88;;;;;;;20.55;24.87;100142.19;5126676;28;20063;-75
2022/03/14 08:49:57;;;;;;;4.05;1.77;;;;;;;20.54;24.75;100135.13;5126958;28;20051;-71
2022/03/14 08:52:23;;;;;;;2.67;1.98;;;;;;;20.54;24.71;100132.44;5125714;28;20233;-73
2022/03/14 08:54:48;;;;;;;2.90;1.67;;;;;;;20.55;24.42;100136.78;5126494;28;20230;-70
2022/03/14 08:57:16;;;;;;;1.63;1.10;;;;;;;20.56;24.29;100134.94;5126750;28;20175;-73
2022/03/14 08:59:43;;;;;;;3.40;1.52;;;;;;;20.56;24.76;100134.94;5122785;28;20027;-74
2022/03/14 09:02:09;;;;;;;7.07;1.90;;;;;;;20.58;24.93;100128.41;5112143;28;20024;-71
2022/03/14 09:04:36;;;;;;;5.03;1.70;;;;;;;20.61;24.69;100131.72;5126767;28;20036;-72
2022/03/14 09:07:02;;;;;;;1.92;1.30;;;;;;;20.61;25.11;100131.72;5125883;28;20043;-73
2022/03/14 09:09:28;;;;;;;3.90;1.45;;;;;;;20.66;24.78;100129.38;5127329;28;20019;-70
2022/03/14 09:11:53;;;;;;;4.15;1.23;;;;;;;20.67;24.86;100131.88;5130463;28;20020;-74
2022/03/14 09:14:19;;;;;;;2.35;1.10;;;;;;;20.69;24.92;100134.41;5130542;28;20024;-74
2022/03/14 09:16:44;;;;;;;2.65;1.60;;;;;;;20.71;24.40;100146.66;5130215;28;20232;-74
2022/03/14 09:19:10;;;;;;;4.30;1.73;;;;;;;20.69;24.37;100145.16;5130210;28;20565;-73
2022/03/14 09:21:35;;;;;;;3.72;1.70;;;;;;;20.67;24.03;100145.31;5129935;28;20027;-73
2022/03/14 09:24:01;;;;;;;3.90;1.40;;;;;;;20.70;24.25;100147.66;5130133;28;20054;-73
2022/03/14 09:26:27;;;;;;;3.22;1.83;;;;;;;20.72;24.47;100139.44;5130049;28;20019;-74
2022/03/14 09:28:52;;;;;;;3.35;1.73;;;;;;;20.74;24.19;100146.31;5146832;27;20122;-73
2022/03/14 09:31:18;;;;;;;2.58;1.48;;;;;;;20.73;24.31;100139.25;5148274;27;20034;-71
2022/03/14 09:33:44;;;;;;;2.47;1.48;;;;;;;20.73;23.81;100141.13;5129906;28;20181;-73
2022/03/14 09:36:09;;;;;;;2.67;1.38;;;;;;;20.72;23.80;100147.53;5129685;28;20023;-73
2022/03/14 09:38:35;;;;;;;3.42;1.70;;;;;;;20.73;23.89;100138.44;5129455;28;20044;-73
2022/03/14 09:41:03;;;;;;;2.40;1.70;;;;;;;20.73;23.75;100150.03;5130028;28;20047;-73
2022/03/14 09:43:37;;;;;;;3.83;1.83;;;;;;;20.74;23.69;100138.25;5130044;27;20035;-73
2022/03/14 09:46:05;;;;;;;2.15;1.42;;;;;;;20.74;23.89;100140.94;5129891;28;20047;-71
2022/03/14 09:48:36;;;;;;;2.83;1.42;;;;;;;20.74;23.73;100137.41;5129428;28;20043;-74
2022/03/14 09:51:03;;;;;;;3.47;1.55;;;;;;;20.75;23.67;100136.41;5110667;28;20031;-71
2022/03/14 09:53:30;;;;;;;2.30;1.35;;;;;;;20.73;23.85;100133.88;5129840;28;20028;-74
2022/03/14 09:55:56;;;;;;;3.95;1.50;;;;;;;20.74;23.64;100142.78;5129692;28;20055;-72
2022/03/14 09:58:22;;;;;;;3.47;1.60;;;;;;;20.75;23.94;100125.66;5132510;27;20252;-74
2022/03/14 10:00:49;;;;;;;2.70;1.10;;;;;;;20.75;23.86;100131.03;5129239;28;20193;-74
2022/03/14 10:03:17;;;;;;;4.25;1.27;;;;;;;20.74;23.67;100129.34;5129582;28;20250;-74
2022/03/14 10:05:44;;;;;;;1.65;0.98;;;;;;;20.76;23.52;100135.41;5129379;28;20058;-71
2022/03/14 10:08:10;;;;;;;2.97;1.30;;;;;;;20.74;23.64;100132.88;5128825;28;20030;-73
2022/03/14 10:10:39;;;;;;;3.25;1.20;;;;;;;20.71;23.43;100130.53;5128937;28;20292;-75
2022/03/14 10:13:06;;;;;;;4.63;1.30;;;;;;;20.71;23.62;100127.84;5129329;28;20108;-75
2022/03/14 10:15:32;;;;;;;2.88;1.27;;;;;;;20.70;23.28;100126.16;5128231;28;20251;-72
2022/03/14 10:17:58;;;;;;;1.95;1.00;;;;;;;20.70;23.37;100125.34;5128572;28;20031;-72
2022/03/14 10:20:25;;;;;;;2.10;1.10;;;;;;;20.67;23.38;100128.34;5128817;28;20036;-74
2022/03/14 10:22:51;;;;;;;2.88;1.23;;;;;;;20.63;23.51;100122.50;5129091;28;20031;-73
2022/03/14 10:25:19;;;;;;;4.93;1.50;;;;;;;20.65;23.36;100120.47;5128821;28;20156;-75
2022/03/14 10:27:57;;;;;;;3.20;1.38;;;;;;;20.63;23.33;100114.44;5128405;28;20245;-72
2022/03/14 10:30:27;;;;;;;2.72;1.02;;;;;;;20.63;23.29;100118.94;5128970;28;20035;-73
2022/03/14 10:33:13;;;;;;;1.70;1.50;;;;;;;20.63;23.38;100119.81;5128778;28;20147;-73
2022/03/14 10:35:41;;;;;;;1.85;0.98;;;;;;;20.64;23.14;100117.94;5128682;28;20039;-71
2022/03/14 10:38:09;;;;;;;4.25;1.00;;;;;;;20.66;23.36;100122.13;5126573;28;20087;-74
2022/03/14 10:40:42;;;;;;;2.53;1.00;;;;;;;20.66;23.39;100114.06;5108374;28;20043;-73
2022/03/14 10:43:20;;;;;;;1.98;1.10;;;;;;;20.69;23.63;100118.28;5125349;28;20198;-75
2022/03/14 10:45:45;;;;;;;2.33;1.00;;;;;;;20.70;23.33;100114.56;5128563;28;20032;-75
2022/03/14 10:48:11;;;;;;;1.85;1.08;;;;;;;20.70;23.22;100109.19;5128378;28;20058;-75
2022/03/14 10:50:40;;;;;;;2.17;1.20;;;;;;;20.73;23.11;100111.53;5128740;28;20197;-75
2022/03/14 10:53:12;;;;;;;2.40;1.05;;;;;;;20.73;23.17;100109.69;5127767;28;20042;-75
2022/03/14 10:55:43;;;;;;;1.90;1.20;;;;;;;20.75;23.20;100104.16;5126802;28;20228;-76
2022/03/14 10:58:10;;;;;;;;;;;;;;;20.70;23.54;100099.28;5128729;28;20233;-76
2022/03/14 11:00:51;;;;;;;4.18;1.35;;;;;;;20.72;23.34;100099.94;5128274;28;19970;-75
2022/03/14 11:03:33;;;;;;;4.15;1.30;;;;;;;20.76;23.52;100102.31;5126743;28;20046;-77
2022/03/14 11:06:13;;;;;;;2.85;1.35;;;;;;;20.73;23.62;100098.94;5128074;28;20023;-78
2022/03/14 11:08:41;;;;;;;2.78;1.38;;;;;;;20.76;23.24;100107.69;5128369;28;20304;-77
2022/03/14 11:11:14;;;;;;;2.67;1.30;;;;;;;20.71;23.30;100100.94;5128492;28;20019;-77
2022/03/14 11:13:42;;;;;;;2.03;1.30;;;;;;;20.77;23.72;100106.69;5128096;28;20095;-73
2022/03/14 11:16:26;;;;;;;2.50;0.98;;;;;;;20.78;23.86;100108.38;5128018;28;20207;-77
2022/03/14 11:18:52;;;;;;;3.05;1.30;;;;;;;20.77;23.72;100106.69;5106810;28;20126;-74
2022/03/14 11:21:25;;;;;;;2.65;1.48;;;;;;;20.77;23.67;100112.06;5107325;28;20031;-76
2022/03/14 11:23:53;;;;;;;1.90;1.20;;;;;;;20.77;23.52;100120.13;5107556;28;20039;-74